Time;durP1;ratioP1;P1;durP2;ratioP2;P2;SDS_P1;SDS_P2;PMS_P1;PMS_P2;Temp;Humidity;BMP_temperature;BMP_pressure;BME280_temperature;BME280_humidity;BME280_pressure;Samples;Min_cycle;Max_cycle;Signal;HPM_P1;HPM_P2
2021/12/22 00:01:56;;;;;;;11.57;6.80;;;1.40;82.80;;;;;;5134291;27;20544;-64
2021/12/22 00:04:24;;;;;;;13.43;7.18;;;1.40;83.00;;;;;;5135024;27;20114;-64
2021/12/22 00:06:50;;;;;;;13.98;7.63;;;1.40;83.00;;;;;;5134315;27;20201;-64
2021/12/22 00:09:15;;;;;;;13.18;7.47;;;1.30;83.30;;;;;;5134692;27;20392;-64
2021/12/22 00:11:43;;;;;;;16.92;8.13;;;1.40;83.30;;;;;;5134932;27;20023;-64
2021/12/22 00:14:10;;;;;;;14.38;7.78;;;1.40;83.40;;;;;;5134792;27;20030;-64
2021/12/22 00:16:36;;;;;;;13.07;7.82;;;1.30;83.50;;;;;;5134576;27;20031;-64
2021/12/22 00:19:02;;;;;;;11.88;7.88;;;1.30;83.80;;;;;;5134017;27;20034;-64
2021/12/22 00:21:28;;;;;;;13.80;8.48;;;1.40;84.00;;;;;;5134647;27;20031;-64
2021/12/22 00:23:53;;;;;;;13.48;7.75;;;1.30;84.00;;;;;;5134028;27;20083;-63
2021/12/22 00:26:19;;;;;;;13.10;7.15;;;1.30;84.00;;;;;;5134573;27;20030;-64
2021/12/22 00:28:46;;;;;;;12.80;7.20;;;1.30;83.90;;;;;;5133615;27;20023;-64
2021/12/22 00:31:14;;;;;;;14.38;6.82;;;1.30;83.60;;;;;;5134470;27;20384;-64
2021/12/22 00:33:52;;;;;;;10.05;6.32;;;1.30;83.70;;;;;;5134604;27;20035;-65
2021/12/22 00:36:27;;;;;;;8.70;6.22;;;1.30;83.60;;;;;;5134297;27;20023;-64
2021/12/22 00:38:53;;;;;;;12.20;6.65;;;1.30;83.50;;;;;;5115588;27;20054;-64
2021/12/22 00:41:19;;;;;;;11.38;6.32;;;1.20;83.10;;;;;;5134185;27;20033;-64
2021/12/22 00:43:45;;;;;;;11.35;5.88;;;1.20;83.00;;;;;;5133850;27;20102;-64
2021/12/22 00:46:12;;;;;;;11.35;5.93;;;1.20;83.30;;;;;;5115401;27;20168;-65
2021/12/22 00:48:39;;;;;;;9.38;5.95;;;1.20;83.40;;;;;;5131936;27;20061;-65
2021/12/22 00:51:05;;;;;;;10.15;5.35;;;1.10;83.40;;;;;;5114839;27;20054;-65
2021/12/22 00:53:31;;;;;;;9.52;5.55;;;1.10;83.20;;;;;;5115507;27;20455;-65
2021/12/22 00:55:57;;;;;;;9.00;5.63;;;1.10;83.10;;;;;;5133295;27;20027;-64
2021/12/22 00:58:23;;;;;;;8.50;5.38;;;1.10;83.30;;;;;;5098521;27;20023;-64
2021/12/22 01:00:49;;;;;;;11.30;5.68;;;1.00;83.10;;;;;;5114691;27;20030;-64
2021/12/22 01:03:17;;;;;;;11.85;6.25;;;1.00;83.00;;;;;;5132790;27;20023;-65
2021/12/22 01:05:43;;;;;;;8.35;5.85;;;1.00;83.40;;;;;;5133308;27;20042;-64
2021/12/22 01:08:09;;;;;;;9.48;6.20;;;1.00;83.60;;;;;;5132734;27;20027;-64
2021/12/22 01:10:35;;;;;;;12.18;5.80;;;1.00;83.80;;;;;;5115399;27;20038;-64
2021/12/22 01:13:03;;;;;;;11.90;5.30;;;0.90;83.70;;;;;;5133001;27;20023;-64
2021/12/22 01:15:30;;;;;;;9.85;5.65;;;0.90;83.80;;;;;;5115033;27;20460;-64
2021/12/22 01:18:03;;;;;;;9.15;5.28;;;0.90;83.90;;;;;;5132708;27;20030;-64
2021/12/22 01:20:35;;;;;;;8.38;5.65;;;0.90;83.60;;;;;;5133438;27;20379;-64
2021/12/22 01:23:05;;;;;;;7.80;5.80;;;0.90;83.60;;;;;;5132917;27;20031;-64
2021/12/22 01:25:42;;;;;;;7.85;5.03;;;0.90;84.00;;;;;;5133021;27;20379;-64
2021/12/22 01:28:08;;;;;;;9.07;5.80;;;0.90;84.30;;;;;;5132768;27;20472;-64
2021/12/22 01:30:36;;;;;;;9.35;5.72;;;0.90;84.00;;;;;;5133302;27;20119;-64
2021/12/22 01:33:03;;;;;;;8.30;5.38;;;0.90;84.00;;;;;;5132508;27;20027;-64
2021/12/22 01:35:33;;;;;;;8.65;5.68;;;0.80;84.00;;;;;;5133360;27;20050;-64
2021/12/22 01:37:59;;;;;;;9.93;5.68;;;0.80;84.10;;;;;;5132518;27;20023;-64
2021/12/22 01:40:25;;;;;;;9.18;5.53;;;0.80;84.30;;;;;;5133217;27;20023;-63
2021/12/22 01:42:54;;;;;;;8.77;5.47;;;0.80;84.40;;;;;;5113616;27;20033;-64
2021/12/22 01:45:53;;;;;;;10.80;5.50;;;0.80;84.50;;;;;;5132625;27;20094;-64
2021/12/22 01:51:28;;;;;;;9.65;4.95;;;0.70;84.60;;;;;;5130704;27;20418;-64
2021/12/22 01:54:00;;;;;;;9.73;5.72;;;0.70;84.80;;;;;;5131680;27;20046;-64
2021/12/22 01:56:28;;;;;;;9.63;5.47;;;0.60;84.90;;;;;;5132544;27;20019;-64
2021/12/22 01:58:56;;;;;;;9.30;5.65;;;0.60;84.90;;;;;;5131529;27;20031;-65
2021/12/22 02:01:22;;;;;;;9.80;5.35;;;0.60;85.20;;;;;;5132885;27;20080;-65
2021/12/22 02:03:50;;;;;;;11.60;5.40;;;0.60;85.60;;;;;;5133172;27;20027;-64
2021/12/22 02:06:17;;;;;;;10.52;5.60;;;0.50;85.50;;;;;;5133168;28;20051;-64
2021/12/22 02:08:45;;;;;;;9.88;5.50;;;0.50;85.80;;;;;;5132615;28;20532;-64
2021/12/22 02:11:15;;;;;;;14.35;5.50;;;0.50;85.90;;;;;;5132242;28;20023;-64
2021/12/22 02:13:45;;;;;;;9.33;5.43;;;0.50;86.20;;;;;;5132646;28;20026;-64
2021/12/22 02:16:15;;;;;;;10.55;5.32;;;0.40;86.30;;;;;;5135723;27;20251;-63
2021/12/22 02:18:45;;;;;;;9.60;5.88;;;0.40;86.50;;;;;;5137023;27;20114;-63
2021/12/22 02:21:11;;;;;;;11.98;5.63;;;0.40;87.00;;;;;;5136425;27;20387;-64
2021/12/22 02:23:38;;;;;;;9.70;6.00;;;0.40;87.60;;;;;;5136815;27;20478;-64
2021/12/22 02:26:13;;;;;;;8.63;5.50;;;0.40;87.30;;;;;;5136023;27;20122;-63
2021/12/22 02:28:44;;;;;;;14.52;6.40;;;0.40;87.40;;;;;;5136789;27;20080;-64
2021/12/22 02:31:14;;;;;;;;;;;0.40;87.60;;;;;;5136657;27;20031;-64
2021/12/22 02:33:42;;;;;;;10.35;6.07;;;0.40;87.40;;;;;;5136675;27;19904;-64
2021/12/22 02:36:19;;;;;;;10.68;6.07;;;0.40;87.80;;;;;;5136023;27;20035;-63
2021/12/22 02:38:48;;;;;;;9.13;5.90;;;0.40;87.80;;;;;;5136778;27;20030;-65
2021/12/22 02:41:16;;;;;;;8.88;6.13;;;0.40;87.70;;;;;;5100500;27;20027;-64
2021/12/22 02:43:46;;;;;;;8.57;6.10;;;0.30;88.00;;;;;;5136474;27;20019;-63
2021/12/22 02:46:17;;;;;;;8.40;6.30;;;0.30;88.10;;;;;;5124967;27;20392;-65
2021/12/22 02:48:43;;;;;;;10.82;6.30;;;0.40;88.20;;;;;;5097833;28;20102;-63
2021/12/22 02:51:09;;;;;;;13.60;6.50;;;0.40;88.30;;;;;;5115222;28;20149;-65
2021/12/22 02:54:21;;;;;;;12.10;7.18;;;0.30;88.20;;;;;;5134040;27;20040;-65
2021/12/22 03:04:08;;;;;;;12.85;6.80;;;0.30;89.10;;;;;;5133503;27;20035;-65
2021/12/22 03:06:41;;;;;;;10.60;6.75;;;0.30;89.20;;;;;;5135469;27;20028;-65
2021/12/22 03:09:19;;;;;;;12.50;6.90;;;0.20;89.30;;;;;;5135515;27;20037;-64
2021/12/22 03:11:44;;;;;;;10.98;6.43;;;0.20;89.60;;;;;;5136044;27;20023;-64
2021/12/22 03:14:12;;;;;;;13.98;6.90;;;0.20;89.70;;;;;;5130992;27;20490;-63
2021/12/22 03:16:38;;;;;;;15.52;7.30;;;0.20;89.70;;;;;;5131271;27;20451;-64
2021/12/22 03:19:04;;;;;;;13.00;7.68;;;0.20;89.90;;;;;;5133919;27;20023;-64
2021/12/22 03:21:29;;;;;;;14.82;6.80;;;0.20;89.90;;;;;;5133020;27;20046;-65
2021/12/22 03:23:56;;;;;;;13.30;7.78;;;0.10;90.00;;;;;;5122012;27;20103;-65
2021/12/22 03:26:24;;;;;;;11.05;6.95;;;0.10;90.10;;;;;;5130550;27;20036;-64
2021/12/22 03:28:50;;;;;;;10.10;6.47;;;0.10;90.30;;;;;;5135329;27;20046;-64
2021/12/22 03:31:16;;;;;;;14.82;7.47;;;0.10;90.30;;;;;;5131198;27;20023;-65
2021/12/22 03:33:43;;;;;;;8.90;5.97;;;0.10;90.30;;;;;;5131146;27;20023;-64
2021/12/22 03:36:09;;;;;;;11.35;6.50;;;0.00;90.30;;;;;;5115733;27;20442;-63
2021/12/22 03:38:36;;;;;;;13.95;7.40;;;0.00;90.40;;;;;;5132109;27;20026;-63
2021/12/22 03:41:04;;;;;;;12.68;7.18;;;0.00;90.60;;;;;;5133993;27;20015;-63
2021/12/22 03:43:30;;;;;;;14.38;6.43;;;-0.10;90.50;;;;;;5135018;27;20027;-63
2021/12/22 03:45:56;;;;;;;11.95;7.22;;;-0.10;90.60;;;;;;5134956;27;20108;-63
2021/12/22 03:48:24;;;;;;;14.38;7.10;;;-0.20;90.60;;;;;;5134217;27;20035;-63
2021/12/22 03:50:50;;;;;;;13.02;7.07;;;-0.20;90.70;;;;;;5130398;27;20252;-64
2021/12/22 03:53:15;;;;;;;11.38;7.50;;;-0.20;90.90;;;;;;5095118;28;20024;-64
2021/12/22 03:55:41;;;;;;;9.02;6.20;;;-0.20;91.00;;;;;;5114104;28;20023;-64
2021/12/22 03:58:07;;;;;;;11.15;7.32;;;-0.20;91.10;;;;;;5113705;28;20429;-64
2021/12/22 04:00:35;;;;;;;16.50;7.88;;;-0.20;91.00;;;;;;5114747;28;20066;-64
2021/12/22 04:03:02;;;;;;;11.88;6.80;;;-0.20;91.10;;;;;;5113622;28;20027;-64
2021/12/22 04:05:28;;;;;;;10.18;7.25;;;-0.20;91.00;;;;;;5114546;28;20026;-64
2021/12/22 04:07:55;;;;;;;11.57;7.22;;;-0.20;91.10;;;;;;5114110;28;20031;-64
2021/12/22 04:10:22;;;;;;;12.30;7.35;;;-0.20;91.10;;;;;;5114010;28;20107;-64
2021/12/22 04:12:56;;;;;;;10.20;7.38;;;-0.20;91.10;;;;;;5114283;28;20066;-64
2021/12/22 04:15:23;;;;;;;13.02;8.30;;;-0.20;91.30;;;;;;5113266;28;20460;-64
2021/12/22 04:17:50;;;;;;;13.90;7.75;;;-0.20;91.10;;;;;;5095894;28;20033;-64
2021/12/22 04:20:16;;;;;;;11.68;8.02;;;-0.20;91.20;;;;;;5121379;27;20024;-64
2021/12/22 04:22:42;;;;;;;13.90;7.55;;;-0.20;91.10;;;;;;5126940;27;20019;-64
2021/12/22 04:25:09;;;;;;;13.10;8.32;;;-0.30;91.20;;;;;;5131281;27;20103;-64
2021/12/22 04:27:36;;;;;;;12.27;7.40;;;-0.30;91.40;;;;;;5134319;27;20028;-64
2021/12/22 04:30:06;;;;;;;11.07;7.78;;;-0.30;91.60;;;;;;5132270;27;20364;-64
2021/12/22 04:32:32;;;;;;;13.18;7.88;;;-0.30;91.60;;;;;;5115882;27;20356;-64
2021/12/22 04:34:58;;;;;;;14.55;8.13;;;-0.30;91.60;;;;;;5134214;27;20109;-64
2021/12/22 04:37:23;;;;;;;10.18;7.70;;;-0.30;91.50;;;;;;5133203;27;20027;-64
2021/12/22 04:39:49;;;;;;;16.55;8.43;;;-0.30;91.60;;;;;;5115977;27;20020;-64
2021/12/22 04:42:16;;;;;;;12.02;7.53;;;-0.30;91.60;;;;;;5112896;28;20466;-64
2021/12/22 04:44:42;;;;;;;13.65;8.20;;;-0.30;91.80;;;;;;5113456;28;20024;-63
2021/12/22 04:47:07;;;;;;;17.00;8.43;;;-0.30;91.80;;;;;;5112809;28;20032;-63
2021/12/22 04:49:33;;;;;;;15.80;9.38;;;-0.30;91.80;;;;;;5113767;28;20177;-64
2021/12/22 04:52:01;;;;;;;14.05;7.90;;;-0.30;91.80;;;;;;5113726;28;20104;-64
2021/12/22 04:56:52;;;;;;;14.65;7.85;;;-0.30;91.80;;;;;;5128617;27;20031;-64
2021/12/22 04:59:18;;;;;;;15.25;8.18;;;-0.30;91.80;;;;;;5133221;27;20023;-63
2021/12/22 05:01:45;;;;;;;13.88;8.48;;;-0.30;91.90;;;;;;5133847;27;20047;-64
2021/12/22 05:04:11;;;;;;;13.27;8.35;;;-0.20;92.00;;;;;;5130668;27;20455;-64
2021/12/22 05:06:36;;;;;;;16.85;8.18;;;-0.30;91.90;;;;;;5133918;27;20114;-64
2021/12/22 05:09:04;;;;;;;13.35;8.80;;;-0.30;91.90;;;;;;5133265;27;20385;-64
2021/12/22 05:11:30;;;;;;;13.93;8.88;;;-0.20;92.00;;;;;;5133461;27;20023;-63
2021/12/22 05:13:56;;;;;;;15.73;8.68;;;-0.20;92.10;;;;;;5133651;27;20030;-64
2021/12/22 05:16:21;;;;;;;21.63;9.57;;;-0.20;92.00;;;;;;5132896;27;20026;-63
2021/12/22 05:18:51;;;;;;;14.80;9.00;;;-0.30;92.00;;;;;;5133572;27;20463;-64
2021/12/22 05:21:21;;;;;;;16.58;8.75;;;-0.30;92.10;;;;;;5132815;27;20067;-64
2021/12/22 05:23:52;;;;;;;17.52;8.82;;;-0.30;92.10;;;;;;5115376;27;20371;-64
2021/12/22 05:26:18;;;;;;;18.80;9.02;;;-0.30;92.30;;;;;;5112605;27;20487;-64
2021/12/22 05:28:44;;;;;;;16.77;9.10;;;-0.30;92.40;;;;;;5130842;27;20039;-64
2021/12/22 05:31:10;;;;;;;16.20;9.30;;;-0.30;92.20;;;;;;5113324;27;20487;-64
2021/12/22 05:33:36;;;;;;;18.27;9.40;;;-0.30;92.30;;;;;;5112781;28;20049;-64
2021/12/22 05:36:02;;;;;;;17.63;10.55;;;-0.30;92.40;;;;;;5094556;28;20030;-65
2021/12/22 05:38:27;;;;;;;18.08;10.90;;;-0.40;92.40;;;;;;5112136;28;20031;-64
2021/12/22 05:40:53;;;;;;;23.35;10.48;;;-0.30;92.50;;;;;;5112543;28;20115;-64
2021/12/22 05:43:18;;;;;;;22.42;10.73;;;-0.30;92.60;;;;;;5093576;28;20110;-65
2021/12/22 05:45:44;;;;;;;17.58;9.93;;;-0.30;92.60;;;;;;5112835;27;20044;-64
2021/12/22 05:48:10;;;;;;;20.88;9.60;;;-0.30;92.60;;;;;;5132308;27;20080;-64
2021/12/22 05:50:36;;;;;;;20.52;10.93;;;-0.30;92.70;;;;;;5132069;27;20436;-64
2021/12/22 05:53:01;;;;;;;23.75;10.57;;;-0.40;92.70;;;;;;5132603;27;20023;-64
2021/12/22 05:55:27;;;;;;;26.17;11.20;;;-0.30;92.70;;;;;;5142246;27;20097;-64
2021/12/22 05:57:53;;;;;;;20.25;10.77;;;-0.30;92.70;;;;;;5153617;27;20066;-64
2021/12/22 06:00:19;;;;;;;21.30;11.05;;;-0.30;92.60;;;;;;5152983;27;20371;-64
2021/12/22 06:02:44;;;;;;;21.02;10.63;;;-0.30;92.60;;;;;;5153501;27;20019;-64
2021/12/22 06:05:11;;;;;;;18.08;10.30;;;-0.40;92.50;;;;;;5152537;27;20027;-64
2021/12/22 06:07:37;;;;;;;20.45;10.93;;;-0.40;92.60;;;;;;5140304;27;20035;-64
2021/12/22 06:10:04;;;;;;;16.33;9.77;;;-0.40;92.70;;;;;;5131490;28;20054;-64
2021/12/22 06:12:30;;;;;;;21.73;10.40;;;-0.40;92.60;;;;;;5130846;28;20030;-63
2021/12/22 06:14:55;;;;;;;15.45;9.70;;;-0.50;92.70;;;;;;5130846;28;20407;-65
2021/12/22 06:17:21;;;;;;;21.35;10.60;;;-0.50;92.90;;;;;;5130377;28;20062;-64
2021/12/22 06:19:47;;;;;;;18.38;10.18;;;-0.50;93.00;;;;;;5132036;28;20349;-64
2021/12/22 06:22:13;;;;;;;18.40;9.68;;;-0.50;93.20;;;;;;5132085;28;20519;-64
2021/12/22 06:24:38;;;;;;;21.08;10.48;;;-0.50;93.30;;;;;;5132433;28;20030;-64
2021/12/22 06:27:04;;;;;;;20.77;10.25;;;-0.60;93.40;;;;;;5132399;28;20106;-64
2021/12/22 06:29:30;;;;;;;17.10;10.27;;;-0.60;93.60;;;;;;5132031;28;20039;-64
2021/12/22 06:31:55;;;;;;;19.35;10.52;;;-0.60;93.60;;;;;;5132268;28;20023;-65
2021/12/22 06:34:21;;;;;;;16.70;10.05;;;-0.60;93.50;;;;;;5131468;28;20468;-64
2021/12/22 06:36:47;;;;;;;16.15;10.40;;;-0.60;93.80;;;;;;5132472;28;20475;-64
2021/12/22 06:39:15;;;;;;;17.45;10.25;;;-0.50;93.90;;;;;;5132042;28;20420;-64
2021/12/22 06:41:41;;;;;;;17.55;11.10;;;-0.50;94.00;;;;;;5132604;28;20083;-65
2021/12/22 06:44:06;;;;;;;20.02;10.95;;;-0.50;93.90;;;;;;5132131;28;20190;-63
2021/12/22 06:46:32;;;;;;;19.48;10.73;;;-0.50;93.90;;;;;;5131973;28;20493;-65
2021/12/22 06:48:58;;;;;;;16.40;10.75;;;-0.50;93.90;;;;;;5132107;28;20369;-65
2021/12/22 06:51:23;;;;;;;18.23;9.80;;;-0.50;93.90;;;;;;5131727;28;20030;-65
2021/12/22 06:53:49;;;;;;;17.45;10.80;;;-0.50;93.80;;;;;;5132201;28;20023;-64
2021/12/22 06:56:16;;;;;;;22.83;10.77;;;-0.40;93.90;;;;;;5113239;28;20043;-65
2021/12/22 06:58:42;;;;;;;18.52;10.75;;;-0.40;93.80;;;;;;5132304;28;20058;-65
2021/12/22 07:01:08;;;;;;;17.25;11.07;;;-0.40;93.80;;;;;;5133777;27;20092;-65
2021/12/22 07:03:33;;;;;;;22.83;11.35;;;-0.40;93.70;;;;;;5135741;27;20375;-64
2021/12/22 07:05:59;;;;;;;22.90;10.18;;;-0.40;93.60;;;;;;5122518;27;20028;-64
2021/12/22 07:08:24;;;;;;;22.38;11.27;;;-0.40;93.60;;;;;;5114660;28;20035;-65
2021/12/22 07:10:51;;;;;;;18.25;10.90;;;-0.40;93.60;;;;;;5133039;27;20031;-64
2021/12/22 07:13:17;;;;;;;16.48;10.93;;;-0.30;93.60;;;;;;5135695;27;20118;-65
2021/12/22 07:15:43;;;;;;;17.80;11.82;;;-0.40;93.50;;;;;;5135741;27;20054;-65
2021/12/22 07:18:11;;;;;;;21.02;11.32;;;-0.40;93.60;;;;;;5135975;27;20027;-64
2021/12/22 07:20:37;;;;;;;20.90;11.45;;;-0.30;93.80;;;;;;5135506;27;20027;-64
2021/12/22 07:23:03;;;;;;;22.15;12.07;;;-0.30;93.60;;;;;;5135982;27;20095;-65
2021/12/22 07:25:29;;;;;;;24.05;12.18;;;-0.30;93.80;;;;;;5134968;27;20019;-63
2021/12/22 07:27:55;;;;;;;20.25;12.32;;;-0.20;93.80;;;;;;5135584;27;20042;-64
2021/12/22 07:30:21;;;;;;;22.10;12.40;;;-0.20;93.80;;;;;;5135388;27;20387;-64
2021/12/22 07:32:46;;;;;;;23.08;12.30;;;-0.20;93.70;;;;;;5135338;27;20038;-64
2021/12/22 07:35:44;;;;;;;23.02;13.15;;;-0.20;93.60;;;;;;5135562;27;20027;-64
2021/12/22 07:38:24;;;;;;;22.35;13.38;;;-0.10;93.50;;;;;;5120614;27;20050;-64
2021/12/22 07:40:54;;;;;;;24.17;13.70;;;-0.10;93.50;;;;;;5135396;27;20357;-63
2021/12/22 07:43:20;;;;;;;22.50;13.43;;;-0.10;93.60;;;;;;5134849;27;20193;-64
2021/12/22 07:45:46;;;;;;;20.95;13.35;;;-0.10;93.60;;;;;;5135455;27;20047;-64
2021/12/22 07:48:12;;;;;;;21.42;13.00;;;-0.10;93.50;;;;;;5134813;27;20027;-64
2021/12/22 07:50:38;;;;;;;22.50;14.00;;;0.00;93.50;;;;;;5134210;27;20031;-63
2021/12/22 07:53:03;;;;;;;22.75;12.85;;;0.00;93.40;;;;;;5135425;27;20046;-65
2021/12/22 07:55:29;;;;;;;20.20;12.13;;;0.00;93.20;;;;;;5134538;27;20024;-65
2021/12/22 07:57:55;;;;;;;20.17;12.35;;;0.00;93.20;;;;;;5135257;27;20031;-65
2021/12/22 08:00:39;;;;;;;24.35;13.15;;;0.00;93.20;;;;;;5134194;27;20364;-64
2021/12/22 08:03:05;;;;;;;22.85;12.82;;;0.10;93.20;;;;;;5135479;27;20036;-64
2021/12/22 08:05:31;;;;;;;21.88;13.27;;;0.10;93.10;;;;;;5134696;27;20031;-64
2021/12/22 08:07:59;;;;;;;28.55;13.68;;;0.10;93.10;;;;;;5134929;27;20049;-65
2021/12/22 08:10:25;;;;;;;20.08;11.55;;;0.20;93.00;;;;;;5134317;27;20027;-64
2021/12/22 08:12:51;;;;;;;29.55;13.63;;;0.20;93.00;;;;;;5115997;27;20103;-64
2021/12/22 08:15:16;;;;;;;21.48;12.63;;;0.20;92.90;;;;;;5134726;27;20448;-65
2021/12/22 08:17:43;;;;;;;20.98;12.60;;;0.30;92.60;;;;;;5135127;27;20408;-65
2021/12/22 08:20:09;;;;;;;22.80;12.57;;;0.30;92.40;;;;;;5134733;27;20023;-65
2021/12/22 08:22:35;;;;;;;22.40;12.20;;;0.40;92.10;;;;;;5115543;27;20380;-64
2021/12/22 08:25:01;;;;;;;20.75;12.45;;;0.40;91.90;;;;;;5134655;27;20027;-64
2021/12/22 08:27:26;;;;;;;21.25;11.68;;;0.40;91.80;;;;;;5133754;27;20038;-65
2021/12/22 08:29:52;;;;;;;26.10;11.98;;;0.50;91.40;;;;;;5134290;27;20456;-65
2021/12/22 08:32:18;;;;;;;18.77;12.18;;;0.50;91.20;;;;;;5115546;27;20023;-64
2021/12/22 08:34:46;;;;;;;18.27;12.98;;;0.50;90.90;;;;;;5134395;27;20026;-64
2021/12/22 08:39:58;;;;;;;23.95;13.02;;;0.50;90.80;;;;;;5134441;27;20115;-64
2021/12/22 08:42:25;;;;;;;20.30;12.57;;;0.50;90.80;;;;;;5133669;27;20035;-63
2021/12/22 08:44:51;;;;;;;19.75;13.35;;;0.50;90.70;;;;;;5134011;27;20023;-63
2021/12/22 08:47:17;;;;;;;22.08;13.40;;;0.50;90.70;;;;;;5134061;27;20030;-64
2021/12/22 08:49:44;;;;;;;22.05;13.45;;;0.50;90.90;;;;;;5115166;27;20077;-63
2021/12/22 08:52:10;;;;;;;24.40;13.50;;;0.50;90.90;;;;;;5134127;27;20020;-65
2021/12/22 08:54:35;;;;;;;22.95;14.50;;;0.50;91.10;;;;;;5133433;27;20370;-64
2021/12/22 08:57:02;;;;;;;22.92;13.63;;;0.60;91.10;;;;;;5134083;27;20027;-64
2021/12/22 08:59:28;;;;;;;24.90;14.18;;;0.60;91.30;;;;;;5133439;27;20352;-65
2021/12/22 09:01:53;;;;;;;24.25;14.27;;;0.60;91.40;;;;;;5134195;27;20023;-65
2021/12/22 09:04:20;;;;;;;21.83;14.23;;;0.70;91.30;;;;;;5134362;27;20476;-65
2021/12/22 09:06:47;;;;;;;23.50;14.73;;;0.70;91.30;;;;;;5133855;27;20019;-68
2021/12/22 09:09:13;;;;;;;26.55;14.85;;;0.80;91.20;;;;;;5133401;27;20039;-64
2021/12/22 09:11:40;;;;;;;26.17;14.82;;;0.80;91.10;;;;;;5132868;27;20023;-64
2021/12/22 09:14:06;;;;;;;20.23;14.77;;;0.90;91.10;;;;;;5131346;27;20042;-64
2021/12/22 09:19:22;;;;;;;25.95;15.57;;;1.00;90.60;;;;;;5113141;28;20034;-65
2021/12/22 09:21:47;;;;;;;24.75;15.07;;;1.10;90.60;;;;;;5112934;28;20027;-65
2021/12/22 09:24:13;;;;;;;24.70;15.90;;;1.20;90.50;;;;;;5111989;28;20050;-65
2021/12/22 09:26:39;;;;;;;25.83;16.27;;;1.30;90.40;;;;;;5112212;28;20030;-64
2021/12/22 09:29:06;;;;;;;25.38;16.40;;;1.40;90.00;;;;;;5112938;28;20475;-64
2021/12/22 09:31:50;;;;;;;26.65;15.30;;;1.40;90.10;;;;;;5112209;28;20104;-66
2021/12/22 09:34:15;;;;;;;24.90;15.25;;;1.60;89.60;;;;;;5112504;28;20026;-64
2021/12/22 09:36:43;;;;;;;25.02;16.38;;;1.60;89.00;;;;;;5112131;28;20375;-65
2021/12/22 09:39:09;;;;;;;28.75;16.40;;;1.70;88.30;;;;;;5112701;28;20123;-65
2021/12/22 09:41:35;;;;;;;24.08;15.80;;;1.70;87.90;;;;;;5112012;28;20103;-64
2021/12/22 09:44:01;;;;;;;26.63;15.52;;;1.80;87.80;;;;;;5112603;28;20475;-64
2021/12/22 09:46:27;;;;;;;27.50;16.67;;;1.90;87.40;;;;;;5111815;28;20052;-65
2021/12/22 09:49:00;;;;;;;21.55;14.95;;;1.90;86.50;;;;;;5112354;28;20041;-65
2021/12/22 09:53:55;;;;;;;30.00;15.85;;;1.90;85.70;;;;;;5112462;28;20097;-64
2021/12/22 09:56:24;;;;;;;24.77;15.93;;;2.00;85.60;;;;;;5112579;28;20027;-65
2021/12/22 09:58:50;;;;;;;26.52;16.10;;;2.00;85.10;;;;;;5112141;28;20519;-64
2021/12/22 10:01:23;;;;;;;23.00;15.80;;;2.00;84.70;;;;;;5112402;28;20019;-65
2021/12/22 10:03:58;;;;;;;23.50;16.35;;;2.00;84.40;;;;;;5112107;28;20020;-65
2021/12/22 10:06:25;;;;;;;26.55;16.55;;;2.00;84.70;;;;;;5112438;28;20096;-65
2021/12/22 10:09:00;;;;;;;24.45;16.85;;;2.00;84.50;;;;;;5112227;28;20356;-65
2021/12/22 10:11:28;;;;;;;25.20;16.80;;;2.00;84.00;;;;;;5111620;28;20460;-64
2021/12/22 10:13:54;;;;;;;27.15;16.05;;;2.10;83.70;;;;;;5112236;28;20031;-64
2021/12/22 10:16:26;;;;;;;28.60;17.42;;;2.10;83.80;;;;;;5111991;28;20251;-64
2021/12/22 10:19:08;;;;;;;27.58;17.48;;;2.20;84.70;;;;;;5112382;28;20039;-65
2021/12/22 10:21:48;;;;;;;25.17;17.20;;;2.30;83.10;;;;;;5111676;28;20019;-64
2021/12/22 10:24:14;;;;;;;23.85;16.45;;;2.50;83.00;;;;;;5112286;28;20019;-64
2021/12/22 10:26:40;;;;;;;32.15;18.75;;;2.60;82.80;;;;;;5111475;28;20602;-64
2021/12/22 10:29:07;;;;;;;32.20;17.63;;;2.70;82.00;;;;;;5112098;28;20063;-65
2021/12/22 10:31:35;;;;;;;28.55;17.58;;;2.90;81.30;;;;;;5111454;28;20019;-65
2021/12/22 10:34:11;;;;;;;25.83;17.60;;;3.00;81.20;;;;;;5111993;28;20027;-65
2021/12/22 10:36:51;;;;;;;28.85;18.00;;;3.20;80.20;;;;;;5113596;28;20024;-65
2021/12/22 10:39:29;;;;;;;28.17;17.25;;;3.30;79.10;;;;;;5116095;28;20050;-65
2021/12/22 10:42:10;;;;;;;26.80;18.58;;;3.40;77.90;;;;;;5115893;28;20024;-65
2021/12/22 10:44:44;;;;;;;25.70;17.15;;;3.50;76.90;;;;;;5115370;28;20486;-65
2021/12/22 10:47:14;;;;;;;28.15;17.23;;;3.60;76.30;;;;;;5115782;28;20518;-64
2021/12/22 10:49:40;;;;;;;29.20;17.73;;;3.60;75.80;;;;;;5115318;28;20407;-65
2021/12/22 10:52:06;;;;;;;27.48;17.88;;;3.70;75.10;;;;;;5115826;28;20026;-65
2021/12/22 10:54:37;;;;;;;30.60;19.27;;;3.80;74.90;;;;;;5115204;28;20057;-64
2021/12/22 10:57:09;;;;;;;29.98;18.35;;;3.90;74.60;;;;;;5115768;28;20032;-65
2021/12/22 10:59:45;;;;;;;29.98;17.70;;;4.00;73.80;;;;;;5115022;28;20031;-64
2021/12/22 11:02:18;;;;;;;25.25;18.40;;;4.10;73.40;;;;;;5132547;27;20027;-64
2021/12/22 11:04:44;;;;;;;28.02;19.23;;;4.10;73.10;;;;;;5135361;27;20076;-64
2021/12/22 11:07:22;;;;;;;30.80;18.70;;;4.20;72.80;;;;;;5136167;27;20386;-64
2021/12/22 11:10:07;;;;;;;22.80;17.20;;;4.20;72.30;;;;;;5135473;27;20034;-64
2021/12/22 11:12:35;;;;;;;26.10;16.98;;;4.30;72.00;;;;;;5133864;27;20126;-64
2021/12/22 11:15:01;;;;;;;25.25;18.23;;;4.30;71.20;;;;;;5133766;27;20027;-64
2021/12/22 11:17:27;;;;;;;24.70;18.02;;;4.30;71.50;;;;;;5135487;27;20080;-64
2021/12/22 11:19:56;;;;;;;29.08;17.70;;;4.40;71.80;;;;;;5135322;27;20098;-64
2021/12/22 11:22:37;;;;;;;26.52;17.40;;;4.50;71.50;;;;;;5135807;27;20031;-64
2021/12/22 11:25:05;;;;;;;29.35;17.85;;;4.50;70.20;;;;;;5136125;27;20028;-64
2021/12/22 11:27:31;;;;;;;30.08;17.42;;;4.60;70.80;;;;;;5135547;27;20070;-64
2021/12/22 11:29:58;;;;;;;25.48;17.50;;;4.60;70.50;;;;;;5135777;27;20126;-64
2021/12/22 11:32:27;;;;;;;28.33;18.63;;;4.60;69.90;;;;;;5135556;27;20062;-63
2021/12/22 11:34:59;;;;;;;25.65;18.25;;;4.60;68.90;;;;;;5134954;27;20371;-64
2021/12/22 11:37:26;;;;;;;24.30;17.80;;;4.50;69.10;;;;;;5135470;27;20065;-64
2021/12/22 11:39:52;;;;;;;23.42;16.90;;;4.40;69.80;;;;;;5134923;27;20027;-64
2021/12/22 11:42:21;;;;;;;26.38;16.67;;;4.40;70.40;;;;;;5135406;27;20368;-64
2021/12/22 11:44:55;;;;;;;26.15;16.95;;;4.40;69.40;;;;;;5134612;27;20027;-64
2021/12/22 11:47:21;;;;;;;28.45;16.05;;;4.40;69.60;;;;;;5134432;27;20123;-64
2021/12/22 11:49:58;;;;;;;23.27;17.25;;;4.40;69.80;;;;;;5134886;27;20019;-64
2021/12/22 11:52:43;;;;;;;27.27;17.38;;;4.50;70.60;;;;;;5135167;27;20054;-63
2021/12/22 11:55:24;;;;;;;27.50;17.92;;;4.50;69.50;;;;;;5135320;27;20023;-64
2021/12/22 11:57:54;;;;;;;27.95;17.67;;;4.40;68.80;;;;;;5134501;27;20069;-64
2021/12/22 12:00:22;;;;;;;22.95;17.23;;;4.40;69.60;;;;;;5134963;27;20179;-65
2021/12/22 12:02:48;;;;;;;26.05;18.23;;;4.30;69.50;;;;;;5134402;27;20325;-64
2021/12/22 12:05:29;;;;;;;28.77;19.20;;;4.20;70.20;;;;;;5134691;27;20020;-64
2021/12/22 12:07:56;;;;;;;38.17;20.60;;;4.30;71.40;;;;;;5134210;27;20038;-63
2021/12/22 12:10:32;;;;;;;29.77;19.05;;;4.40;71.70;;;;;;5134846;27;20046;-63
2021/12/22 12:13:04;;;;;;;28.38;19.27;;;4.40;70.30;;;;;;5134307;27;20130;-64
2021/12/22 12:21:37;;;;;;;28.40;19.25;;;4.40;71.10;;;;;;5134879;27;20079;-65
2021/12/22 12:21:55;;;;;;;32.25;18.65;;;4.30;70.60;;;;;;5133811;27;20121;-64
2021/12/22 12:24:37;;;;;;;29.80;20.05;;;4.20;71.50;;;;;;5134714;27;20035;-64
2021/12/22 12:27:38;;;;;;;30.55;20.08;;;4.20;71.60;;;;;;5134487;27;20063;-64
2021/12/22 12:30:38;;;;;;;30.38;20.83;;;4.10;71.90;;;;;;5134466;27;20474;-64
2021/12/22 12:33:05;;;;;;;29.50;19.70;;;4.00;71.80;;;;;;5116018;27;20027;-64
2021/12/22 12:35:33;;;;;;;27.83;20.00;;;4.00;73.10;;;;;;5134414;27;20038;-65
2021/12/22 12:38:02;;;;;;;29.08;20.92;;;3.80;73.30;;;;;;5133843;27;20035;-64
2021/12/22 12:41:02;;;;;;;33.30;21.73;;;3.80;74.80;;;;;;5115858;27;20104;-65
2021/12/22 12:43:47;;;;;;;33.75;20.65;;;3.90;74.30;;;;;;5134461;27;20353;-64
2021/12/22 12:46:24;;;;;;;28.17;19.67;;;3.90;74.20;;;;;;5134057;27;20111;-64
2021/12/22 12:49:02;;;;;;;26.63;19.20;;;3.90;74.20;;;;;;5133219;27;20427;-64
2021/12/22 12:51:31;;;;;;;30.48;20.35;;;3.90;74.60;;;;;;5133974;27;20031;-64
2021/12/22 12:54:16;;;;;;;29.13;20.02;;;4.00;74.40;;;;;;5133153;27;20362;-64
2021/12/22 12:56:48;;;;;;;31.02;19.83;;;3.90;73.20;;;;;;5133347;27;20122;-65
2021/12/22 12:59:16;;;;;;;28.92;19.67;;;3.90;74.10;;;;;;5133739;27;20031;-63
2021/12/22 13:01:47;;;;;;;30.77;20.20;;;3.90;74.30;;;;;;5133107;27;20030;-64
2021/12/22 13:04:23;;;;;;;27.58;19.38;;;4.00;74.60;;;;;;5133511;27;20484;-64
2021/12/22 13:06:50;;;;;;;28.35;20.10;;;4.00;74.10;;;;;;5133199;27;20390;-64
2021/12/22 13:09:26;;;;;;;26.77;19.60;;;4.00;73.40;;;;;;5133794;27;20368;-64
2021/12/22 13:12:02;;;;;;;32.08;19.98;;;4.10;73.20;;;;;;5133112;27;20023;-64
2021/12/22 13:17:17;;;;;;;29.27;20.15;;;4.00;72.40;;;;;;5133272;27;20030;-64